sensor_id;sensor_type;location;lat;lon;timestamp;pressure;altitude;pressure_sealevel;temperature;humidity
51715;BME280;39115;59.332;18.034;2023-04-26T00:02:05;99610.13;;;7.71;50.79
51715;BME280;39115;59.332;18.034;2023-04-26T00:04:25;99618.22;;;7.70;50.55
51715;BME280;39115;59.332;18.034;2023-04-26T00:06:48;99608.44;;;7.70;50.71
51715;BME280;39115;59.332;18.034;2023-04-26T00:09:08;99606.50;;;7.72;50.77
51715;BME280;39115;59.332;18.034;2023-04-26T00:11:28;99602.88;;;7.73;50.69
51715;BME280;39115;59.332;18.034;2023-04-26T00:13:49;99602.06;;;7.73;50.56
51715;BME280;39115;59.332;18.034;2023-04-26T00:16:09;99606.50;;;7.72;50.73
51715;BME280;39115;59.332;18.034;2023-04-26T00:18:29;99602.34;;;7.70;50.76
51715;BME280;39115;59.332;18.034;2023-04-26T00:20:50;99606.81;;;7.69;50.54
51715;BME280;39115;59.332;18.034;2023-04-26T00:23:10;99601.38;;;7.71;50.68
51715;BME280;39115;59.332;18.034;2023-04-26T00:25:31;99595.91;;;7.72;51.01
51715;BME280;39115;59.332;18.034;2023-04-26T00:27:51;99593.97;;;7.74;50.58
51715;BME280;39115;59.332;18.034;2023-04-26T00:30:12;99593.81;;;7.76;50.72
51715;BME280;39115;59.332;18.034;2023-04-26T00:32:32;99592.00;;;7.77;50.74
51715;BME280;39115;59.332;18.034;2023-04-26T00:34:54;99600.63;;;7.79;50.68
51715;BME280;39115;59.332;18.034;2023-04-26T00:37:14;99598.69;;;7.81;50.88
51715;BME280;39115;59.332;18.034;2023-04-26T00:39:35;99588.94;;;7.81;50.60
51715;BME280;39115;59.332;18.034;2023-04-26T00:41:56;99603.38;;;7.87;50.74
51715;BME280;39115;59.332;18.034;2023-04-26T00:44:16;99601.59;;;7.87;50.76
51715;BME280;39115;59.332;18.034;2023-04-26T00:46:36;99600.47;;;7.90;50.71
51715;BME280;39115;59.332;18.034;2023-04-26T00:48:57;99599.47;;;7.91;50.77
51715;BME280;39115;59.332;18.034;2023-04-26T00:51:17;99599.47;;;7.91;50.79
51715;BME280;39115;59.332;18.034;2023-04-26T00:53:37;99597.81;;;7.90;50.71
51715;BME280;39115;59.332;18.034;2023-04-26T00:55:58;99595.16;;;7.90;50.78
51715;BME280;39115;59.332;18.034;2023-04-26T00:58:18;99601.28;;;7.90;50.78
51715;BME280;39115;59.332;18.034;2023-04-26T01:00:39;99594.31;;;7.89;50.75
51715;BME280;39115;59.332;18.034;2023-04-26T01:02:59;99595.97;;;7.90;50.76
51715;BME280;39115;59.332;18.034;2023-04-26T01:05:20;99601.44;;;7.89;50.76
51715;BME280;39115;59.332;18.034;2023-04-26T01:07:40;99603.38;;;7.87;50.74
51715;BME280;39115;59.332;18.034;2023-04-26T01:10:01;99598.41;;;7.84;50.95
51715;BME280;39115;59.332;18.034;2023-04-26T01:12:24;99599.22;;;7.84;50.64
51715;BME280;39115;59.332;18.034;2023-04-26T01:14:45;99598.94;;;7.87;50.81
51715;BME280;39115;59.332;18.034;2023-04-26T01:17:06;99592.22;;;7.93;50.89
51715;BME280;39115;59.332;18.034;2023-04-26T01:19:26;99594.03;;;7.93;50.66
51715;BME280;39115;59.332;18.034;2023-04-26T01:21:47;99586.06;;;7.93;50.90
51715;BME280;39115;59.332;18.034;2023-04-26T01:24:08;99593.22;;;7.92;50.66
51715;BME280;39115;59.332;18.034;2023-04-26T01:26:29;99601.69;;;7.96;50.96
51715;BME280;39115;59.332;18.034;2023-04-26T01:28:50;99599.31;;;7.93;50.91
51715;BME280;39115;59.332;18.034;2023-04-26T01:31:11;99596.84;;;7.91;50.98
51715;BME280;39115;59.332;18.034;2023-04-26T01:33:31;99598.34;;;7.94;50.99
51715;BME280;39115;59.332;18.034;2023-04-26T01:35:51;99593.06;;;7.94;50.90
51715;BME280;39115;59.332;18.034;2023-04-26T01:38:12;99596.53;;;7.94;50.98
51715;BME280;39115;59.332;18.034;2023-04-26T01:40:33;99599.06;;;7.96;50.87
51715;BME280;39115;59.332;18.034;2023-04-26T01:42:53;99601.69;;;7.96;51.06
51715;BME280;39115;59.332;18.034;2023-04-26T01:45:14;99600.03;;;7.95;51.07
51715;BME280;39115;59.332;18.034;2023-04-26T01:47:34;99592.06;;;7.95;51.03
51715;BME280;39115;59.332;18.034;2023-04-26T01:49:55;99589.28;;;7.96;50.94
51715;BME280;39115;59.332;18.034;2023-04-26T01:52:15;99584.13;;;7.95;50.97
51715;BME280;39115;59.332;18.034;2023-04-26T01:54:35;99585.91;;;7.94;51.03
51715;BME280;39115;59.332;18.034;2023-04-26T01:56:56;99585.66;;;7.97;50.98
51715;BME280;39115;59.332;18.034;2023-04-26T01:59:16;99588.13;;;7.99;51.05
51715;BME280;39115;59.332;18.034;2023-04-26T02:01:36;99590.78;;;7.99;51.01
51715;BME280;39115;59.332;18.034;2023-04-26T02:03:57;99589.28;;;7.96;50.92
51715;BME280;39115;59.332;18.034;2023-04-26T02:06:17;99589.69;;;7.91;51.06
51715;BME280;39115;59.332;18.034;2023-04-26T02:08:37;99579.53;;;7.87;51.04
51715;BME280;39115;59.332;18.034;2023-04-26T02:10:58;99584.03;;;7.86;51.36
51715;BME280;39115;59.332;18.034;2023-04-26T02:13:18;99582.19;;;7.87;50.95
51715;BME280;39115;59.332;18.034;2023-04-26T02:15:38;99578.72;;;7.86;51.27
51715;BME280;39115;59.332;18.034;2023-04-26T02:17:59;99581.06;;;7.89;51.27
51715;BME280;39115;59.332;18.034;2023-04-26T02:20:20;99575.63;;;7.91;51.30
51715;BME280;39115;59.332;18.034;2023-04-26T02:22:40;99584.56;;;7.90;51.23
51715;BME280;39115;59.332;18.034;2023-04-26T02:25:01;99572.44;;;7.87;51.39
51715;BME280;39115;59.332;18.034;2023-04-26T02:27:21;99580.50;;;7.86;51.39
51715;BME280;39115;59.332;18.034;2023-04-26T02:29:41;99577.88;;;7.86;51.05
51715;BME280;39115;59.332;18.034;2023-04-26T02:32:02;99581.38;;;7.86;51.31
51715;BME280;39115;59.332;18.034;2023-04-26T02:34:22;99575.75;;;7.89;51.37
51715;BME280;39115;59.332;18.034;2023-04-26T02:36:43;99576.34;;;7.93;51.39
51715;BME280;39115;59.332;18.034;2023-04-26T02:39:03;99576.47;;;7.91;51.39
51715;BME280;39115;59.332;18.034;2023-04-26T02:41:24;99573.25;;;7.88;51.22
51715;BME280;39115;59.332;18.034;2023-04-26T02:43:45;99577.19;;;7.84;51.24
51715;BME280;39115;59.332;18.034;2023-04-26T02:46:06;99573.16;;;7.80;51.29
51715;BME280;39115;59.332;18.034;2023-04-26T02:48:26;99568.84;;;7.79;51.37
51715;BME280;39115;59.332;18.034;2023-04-26T02:50:47;99566.19;;;7.79;51.63
51715;BME280;39115;59.332;18.034;2023-04-26T02:53:07;99572.34;;;7.79;51.49
51715;BME280;39115;59.332;18.034;2023-04-26T02:55:28;99569.53;;;7.81;51.53
51715;BME280;39115;59.332;18.034;2023-04-26T02:57:48;99561.44;;;7.82;51.56
51715;BME280;39115;59.332;18.034;2023-04-26T03:00:08;99572.72;;;7.84;51.56
51715;BME280;39115;59.332;18.034;2023-04-26T03:02:30;99568.56;;;7.82;51.38
51715;BME280;39115;59.332;18.034;2023-04-26T03:04:51;99564.06;;;7.82;51.35
51715;BME280;39115;59.332;18.034;2023-04-26T03:07:11;99565.91;;;7.82;51.61
51715;BME280;39115;59.332;18.034;2023-04-26T03:09:32;99563.25;;;7.82;51.56
51715;BME280;39115;59.332;18.034;2023-04-26T03:11:53;99559.91;;;7.80;51.69
51715;BME280;39115;59.332;18.034;2023-04-26T03:14:13;99558.78;;;7.82;51.35
51715;BME280;39115;59.332;18.034;2023-04-26T03:16:39;99557.97;;;7.82;51.59
51715;BME280;39115;59.332;18.034;2023-04-26T03:18:59;99570.94;;;7.85;51.56
51715;BME280;39115;59.332;18.034;2023-04-26T03:21:20;99567.97;;;7.88;51.60
51715;BME280;39115;59.332;18.034;2023-04-26T03:23:40;99575.91;;;7.88;51.72
51715;BME280;39115;59.332;18.034;2023-04-26T03:26:01;99565.16;;;7.89;51.68
51715;BME280;39115;59.332;18.034;2023-04-26T03:28:21;99567.97;;;7.88;51.66
51715;BME280;39115;59.332;18.034;2023-04-26T03:30:41;99574.25;;;7.87;51.46
51715;BME280;39115;59.332;18.034;2023-04-26T03:33:02;99577.03;;;7.85;51.58
51715;BME280;39115;59.332;18.034;2023-04-26T03:35:22;99577.19;;;7.84;51.75
51715;BME280;39115;59.332;18.034;2023-04-26T03:37:45;99575.69;;;7.81;52.09
51715;BME280;39115;59.332;18.034;2023-04-26T03:40:06;99580.28;;;7.79;51.95
51715;BME280;39115;59.332;18.034;2023-04-26T03:42:27;99576.78;;;7.79;52.03
51715;BME280;39115;59.332;18.034;2023-04-26T03:44:48;99573.31;;;7.78;52.04
51715;BME280;39115;59.332;18.034;2023-04-26T03:47:08;99576.78;;;7.79;51.98
51715;BME280;39115;59.332;18.034;2023-04-26T03:49:28;99586.72;;;7.77;52.19
51715;BME280;39115;59.332;18.034;2023-04-26T03:51:49;99582.22;;;7.77;51.91
51715;BME280;39115;59.332;18.034;2023-04-26T03:54:09;99586.72;;;7.77;51.98
51715;BME280;39115;59.332;18.034;2023-04-26T03:56:30;99583.22;;;7.76;51.89
51715;BME280;39115;59.332;18.034;2023-04-26T03:58:50;99578.06;;;7.74;52.25
51715;BME280;39115;59.332;18.034;2023-04-26T04:01:11;99579.19;;;7.72;51.93
51715;BME280;39115;59.332;18.034;2023-04-26T04:03:31;99583.78;;;7.70;51.96
51715;BME280;39115;59.332;18.034;2023-04-26T04:05:51;99585.63;;;7.69;52.18
51715;BME280;39115;59.332;18.034;2023-04-26T04:08:11;99584.78;;;7.69;52.18
51715;BME280;39115;59.332;18.034;2023-04-26T04:10:32;99584.78;;;7.69;52.18
51715;BME280;39115;59.332;18.034;2023-04-26T04:12:52;99589.25;;;7.68;52.34
51715;BME280;39115;59.332;18.034;2023-04-26T04:15:13;99589.38;;;7.67;52.27
51715;BME280;39115;59.332;18.034;2023-04-26T04:17:33;99588.69;;;7.65;52.23
51715;BME280;39115;59.332;18.034;2023-04-26T04:19:53;99584.38;;;7.64;52.05
51715;BME280;39115;59.332;18.034;2023-04-26T04:22:14;99591.63;;;7.62;52.37
51715;BME280;39115;59.332;18.034;2023-04-26T04:24:34;99588.28;;;7.59;52.40
51715;BME280;39115;59.332;18.034;2023-04-26T04:26:54;99592.59;;;7.60;52.41
51715;BME280;39115;59.332;18.034;2023-04-26T04:29:15;99577.69;;;7.59;52.19
51715;BME280;39115;59.332;18.034;2023-04-26T04:31:35;99587.44;;;7.59;52.68
51715;BME280;39115;59.332;18.034;2023-04-26T04:33:56;99585.78;;;7.58;52.52
51715;BME280;39115;59.332;18.034;2023-04-26T04:36:16;99584.09;;;7.57;52.60
51715;BME280;39115;59.332;18.034;2023-04-26T04:38:37;99591.06;;;7.58;52.62
51715;BME280;39115;59.332;18.034;2023-04-26T04:40:57;99587.59;;;7.57;52.50
51715;BME280;39115;59.332;18.034;2023-04-26T04:43:18;99592.91;;;7.57;52.78
51715;BME280;39115;59.332;18.034;2023-04-26T04:45:39;99591.34;;;7.55;52.63
51715;BME280;39115;59.332;18.034;2023-04-26T04:47:59;99596.81;;;7.53;52.74
51715;BME280;39115;59.332;18.034;2023-04-26T04:50:19;99598.31;;;7.56;52.43
51715;BME280;39115;59.332;18.034;2023-04-26T04:52:40;99600.97;;;7.56;52.56
51715;BME280;39115;59.332;18.034;2023-04-26T04:55:01;99600.16;;;7.55;52.88
51715;BME280;39115;59.332;18.034;2023-04-26T04:57:22;99594.16;;;7.53;52.64
51715;BME280;39115;59.332;18.034;2023-04-26T04:59:43;99606.41;;;7.54;52.96
51715;BME280;39115;59.332;18.034;2023-04-26T05:02:03;99603.06;;;7.52;52.76
51715;BME280;39115;59.332;18.034;2023-04-26T05:04:24;99602.09;;;7.53;52.50
51715;BME280;39115;59.332;18.034;2023-04-26T05:06:44;99607.13;;;7.56;52.78
51715;BME280;39115;59.332;18.034;2023-04-26T05:09:05;99605.44;;;7.55;52.90
51715;BME280;39115;59.332;18.034;2023-04-26T05:11:25;99605.13;;;7.58;52.87
51715;BME280;39115;59.332;18.034;2023-04-26T05:13:45;99600.69;;;7.59;52.67
51715;BME280;39115;59.332;18.034;2023-04-26T05:16:06;99598.06;;;7.59;52.94
51715;BME280;39115;59.332;18.034;2023-04-26T05:18:26;99603.78;;;7.54;52.57
51715;BME280;39115;59.332;18.034;2023-04-26T05:20:46;99601.50;;;7.59;52.79
51715;BME280;39115;59.332;18.034;2023-04-26T05:23:07;99610.56;;;7.67;52.64
51715;BME280;39115;59.332;18.034;2023-04-26T05:25:27;99606.34;;;7.74;52.72
51715;BME280;39115;59.332;18.034;2023-04-26T05:27:48;99604.13;;;7.79;52.66
51715;BME280;39115;59.332;18.034;2023-04-26T05:30:08;99611.22;;;7.88;52.52
51715;BME280;39115;59.332;18.034;2023-04-26T05:32:28;99610.84;;;8.01;52.47
51715;BME280;39115;59.332;18.034;2023-04-26T05:34:49;99612.50;;;8.12;52.38
51715;BME280;39115;59.332;18.034;2023-04-26T05:37:10;99621.53;;;8.19;52.34
51715;BME280;39115;59.332;18.034;2023-04-26T05:39:30;99621.22;;;8.22;52.39
51715;BME280;39115;59.332;18.034;2023-04-26T05:41:50;99619.13;;;8.26;52.31
51715;BME280;39115;59.332;18.034;2023-04-26T05:44:11;99623.00;;;8.32;52.40
51715;BME280;39115;59.332;18.034;2023-04-26T05:46:32;99616.56;;;8.34;52.36
51715;BME280;39115;59.332;18.034;2023-04-26T05:48:52;99619.06;;;8.36;52.39
51715;BME280;39115;59.332;18.034;2023-04-26T05:51:13;99624.94;;;8.39;52.27
51715;BME280;39115;59.332;18.034;2023-04-26T05:53:33;99627.28;;;8.43;52.47
51715;BME280;39115;59.332;18.034;2023-04-26T05:55:54;99620.16;;;8.43;52.54
51715;BME280;39115;59.332;18.034;2023-04-26T05:58:14;99623.50;;;8.45;52.47
51715;BME280;39115;59.332;18.034;2023-04-26T06:00:35;99623.38;;;8.47;52.46
51715;BME280;39115;59.332;18.034;2023-04-26T06:02:56;99624.22;;;8.47;52.35
51715;BME280;39115;59.332;18.034;2023-04-26T06:05:16;99626.88;;;8.47;52.39
51715;BME280;39115;59.332;18.034;2023-04-26T06:07:36;99624.91;;;8.49;52.37
51715;BME280;39115;59.332;18.034;2023-04-26T06:09:59;99626.41;;;8.52;52.43
51715;BME280;39115;59.332;18.034;2023-04-26T06:12:19;99620.69;;;8.57;52.39
51715;BME280;39115;59.332;18.034;2023-04-26T06:14:40;99622.19;;;8.59;52.37
51715;BME280;39115;59.332;18.034;2023-04-26T06:17:00;99629.53;;;8.65;52.25
51715;BME280;39115;59.332;18.034;2023-04-26T06:19:21;99621.66;;;8.74;52.42
51715;BME280;39115;59.332;18.034;2023-04-26T06:21:41;99625.72;;;8.78;51.95
51715;BME280;39115;59.332;18.034;2023-04-26T06:24:01;99615.22;;;8.76;52.26
51715;BME280;39115;59.332;18.034;2023-04-26T06:26:22;99628.38;;;8.78;52.32
51715;BME280;39115;59.332;18.034;2023-04-26T06:28:43;99618.72;;;8.77;52.23
51715;BME280;39115;59.332;18.034;2023-04-26T06:31:03;99615.22;;;8.76;52.22
51715;BME280;39115;59.332;18.034;2023-04-26T06:33:23;99627.84;;;8.74;52.36
51715;BME280;39115;59.332;18.034;2023-04-26T06:35:44;99616.38;;;8.74;52.42
51715;BME280;39115;59.332;18.034;2023-04-26T06:38:05;99619.72;;;8.76;51.98
51715;BME280;39115;59.332;18.034;2023-04-26T06:40:25;99630.47;;;8.74;52.32
51715;BME280;39115;59.332;18.034;2023-04-26T06:42:46;99629.09;;;8.70;52.44
51715;BME280;39115;59.332;18.034;2023-04-26T06:45:06;99625.09;;;8.66;52.26
51715;BME280;39115;59.332;18.034;2023-04-26T06:47:27;99620.06;;;8.63;52.43
51715;BME280;39115;59.332;18.034;2023-04-26T06:49:47;99629.00;;;8.62;52.35
51715;BME280;39115;59.332;18.034;2023-04-26T06:52:07;99639.94;;;8.59;52.36
51715;BME280;39115;59.332;18.034;2023-04-26T06:54:28;99635.16;;;8.62;52.27
51715;BME280;39115;59.332;18.034;2023-04-26T06:56:49;99641.81;;;8.66;52.33
51715;BME280;39115;59.332;18.034;2023-04-26T06:59:09;99653.13;;;8.68;52.17
51715;BME280;39115;59.332;18.034;2023-04-26T07:01:29;99650.94;;;8.64;52.11
51715;BME280;39115;59.332;18.034;2023-04-26T07:03:52;99656.13;;;8.56;52.27
51715;BME280;39115;59.332;18.034;2023-04-26T07:06:13;99664.53;;;8.51;52.39
51715;BME280;39115;59.332;18.034;2023-04-26T07:08:33;99666.66;;;8.47;52.46
51715;BME280;39115;59.332;18.034;2023-04-26T07:10:53;99663.31;;;8.35;52.35
51715;BME280;39115;59.332;18.034;2023-04-26T07:13:14;99675.00;;;8.15;52.57
51715;BME280;39115;59.332;18.034;2023-04-26T07:15:34;99679.53;;;7.95;52.91
51715;BME280;39115;59.332;18.034;2023-04-26T07:17:55;99680.09;;;7.79;53.14
51715;BME280;39115;59.332;18.034;2023-04-26T07:20:15;99685.28;;;7.70;52.93
51715;BME280;39115;59.332;18.034;2023-04-26T07:22:39;99685.16;;;7.62;53.17
51715;BME280;39115;59.332;18.034;2023-04-26T07:24:59;99688.25;;;7.57;53.22
51715;BME280;39115;59.332;18.034;2023-04-26T07:27:19;99691.16;;;7.54;52.90
51715;BME280;39115;59.332;18.034;2023-04-26T07:29:40;99695.50;;;7.55;52.91
51715;BME280;39115;59.332;18.034;2023-04-26T07:32:00;99696.31;;;7.56;52.81
51715;BME280;39115;59.332;18.034;2023-04-26T07:34:21;99701.59;;;7.56;52.87
51715;BME280;39115;59.332;18.034;2023-04-26T07:36:41;99701.59;;;7.56;53.13
51715;BME280;39115;59.332;18.034;2023-04-26T07:39:01;99712.19;;;7.56;53.06
51715;BME280;39115;59.332;18.034;2023-04-26T07:41:24;99701.75;;;7.54;52.87
51715;BME280;39115;59.332;18.034;2023-04-26T07:43:44;99704.25;;;7.56;52.96
51715;BME280;39115;59.332;18.034;2023-04-26T07:46:05;99703.84;;;7.60;52.78
51715;BME280;39115;59.332;18.034;2023-04-26T07:48:25;99707.59;;;7.68;52.70
51715;BME280;39115;59.332;18.034;2023-04-26T07:50:45;99708.84;;;7.73;52.84
51715;BME280;39115;59.332;18.034;2023-04-26T07:53:06;99701.44;;;7.77;52.87
51715;BME280;39115;59.332;18.034;2023-04-26T07:55:26;99706.47;;;7.80;52.59
51715;BME280;39115;59.332;18.034;2023-04-26T07:57:46;99700.31;;;7.80;52.56
51715;BME280;39115;59.332;18.034;2023-04-26T08:00:07;99715.50;;;7.78;52.79
51715;BME280;39115;59.332;18.034;2023-04-26T08:02:29;99713.16;;;7.74;52.62
51715;BME280;39115;59.332;18.034;2023-04-26T08:04:49;99713.16;;;7.74;52.93
51715;BME280;39115;59.332;18.034;2023-04-26T08:07:14;99713.31;;;7.73;52.83
51715;BME280;39115;59.332;18.034;2023-04-26T08:09:35;99721.94;;;7.75;52.65
51715;BME280;39115;59.332;18.034;2023-04-26T08:11:55;99716.91;;;7.82;52.48
51715;BME280;39115;59.332;18.034;2023-04-26T08:14:16;99712.72;;;7.89;52.80
51715;BME280;39115;59.332;18.034;2023-04-26T08:16:36;99720.38;;;8.02;52.57
51715;BME280;39115;59.332;18.034;2023-04-26T08:18:56;99709.31;;;8.16;52.37
51715;BME280;39115;59.332;18.034;2023-04-26T08:21:21;99720.41;;;8.30;52.17
51715;BME280;39115;59.332;18.034;2023-04-26T08:23:42;99720.09;;;8.43;52.27
51715;BME280;39115;59.332;18.034;2023-04-26T08:26:02;99720.94;;;8.53;52.35
51715;BME280;39115;59.332;18.034;2023-04-26T08:28:23;99723.38;;;8.64;52.09
51715;BME280;39115;59.332;18.034;2023-04-26T08:30:43;99721.78;;;8.81;51.61
51715;BME280;39115;59.332;18.034;2023-04-26T08:33:04;99722.16;;;8.86;51.98
51715;BME280;39115;59.332;18.034;2023-04-26T08:35:24;99730.50;;;8.92;51.70
51715;BME280;39115;59.332;18.034;2023-04-26T08:37:44;99730.50;;;8.92;51.78
51715;BME280;39115;59.332;18.034;2023-04-26T08:40:05;99729.81;;;8.90;52.23
51715;BME280;39115;59.332;18.034;2023-04-26T08:42:31;99739.75;;;8.88;52.08
51715;BME280;39115;59.332;18.034;2023-04-26T08:44:52;99735.84;;;8.82;52.08
51715;BME280;39115;59.332;18.034;2023-04-26T08:47:55;99728.66;;;8.74;52.33
51715;BME280;39115;59.332;18.034;2023-04-26T08:49:57;99738.19;;;8.67;52.05
51715;BME280;39115;59.332;18.034;2023-04-26T08:52:22;99733.84;;;8.66;51.84
51715;BME280;39115;59.332;18.034;2023-04-26T08:54:43;99733.00;;;8.65;51.93
51715;BME280;39115;59.332;18.034;2023-04-26T08:57:05;99726.28;;;8.71;52.12
51715;BME280;39115;59.332;18.034;2023-04-26T08:59:27;99738.94;;;8.77;51.98
51715;BME280;39115;59.332;18.034;2023-04-26T09:01:48;99735.84;;;8.82;51.92
51715;BME280;39115;59.332;18.034;2023-04-26T09:04:09;99742.69;;;8.84;51.71
51715;BME280;39115;59.332;18.034;2023-04-26T09:06:31;99740.72;;;8.86;52.01
51715;BME280;39115;59.332;18.034;2023-04-26T09:08:52;99744.47;;;8.94;51.99
51715;BME280;39115;59.332;18.034;2023-04-26T09:11:14;99743.19;;;8.98;51.65
51715;BME280;39115;59.332;18.034;2023-04-26T09:13:34;99751.81;;;9.00;51.73
51715;BME280;39115;59.332;18.034;2023-04-26T09:15:54;99742.19;;;8.99;51.61
51715;BME280;39115;59.332;18.034;2023-04-26T09:18:15;99744.56;;;9.02;51.46
51715;BME280;39115;59.332;18.034;2023-04-26T09:20:36;99737.41;;;9.02;51.78
51715;BME280;39115;59.332;18.034;2023-04-26T09:23:06;99746.75;;;9.07;51.44
51715;BME280;39115;59.332;18.034;2023-04-26T09:25:27;99742.53;;;9.14;51.18
51715;BME280;39115;59.332;18.034;2023-04-26T09:27:48;99731.69;;;9.25;51.50
51715;BME280;39115;59.332;18.034;2023-04-26T09:35:05;99733.97;;;9.56;51.03
51715;BME280;39115;59.332;18.034;2023-04-26T09:37:27;99734.34;;;9.61;50.73
51715;BME280;39115;59.332;18.034;2023-04-26T09:39:48;99735.22;;;9.70;51.10
51715;BME280;39115;59.332;18.034;2023-04-26T09:42:08;99735.75;;;9.74;50.88
51715;BME280;39115;59.332;18.034;2023-04-26T09:44:30;99741.91;;;9.74;51.09
51715;BME280;39115;59.332;18.034;2023-04-26T09:49:24;99749.38;;;9.71;51.03
51715;BME280;39115;59.332;18.034;2023-04-26T09:51:58;99745.56;;;9.73;51.26
51715;BME280;39115;59.332;18.034;2023-04-26T09:54:18;99747.59;;;9.79;51.08
51715;BME280;39115;59.332;18.034;2023-04-26T09:56:59;99740.50;;;10.06;50.68
51715;BME280;39115;59.332;18.034;2023-04-26T09:59:20;99734.66;;;10.29;49.76
51715;BME280;39115;59.332;18.034;2023-04-26T10:01:41;99732.63;;;10.49;50.02
51715;BME280;39115;59.332;18.034;2023-04-26T10:04:01;99729.50;;;10.62;50.05
51715;BME280;39115;59.332;18.034;2023-04-26T10:06:23;99748.47;;;10.59;49.65
51715;BME280;39115;59.332;18.034;2023-04-26T10:08:44;99738.09;;;10.48;50.49
51715;BME280;39115;59.332;18.034;2023-04-26T10:11:04;99733.72;;;10.38;50.56
51715;BME280;39115;59.332;18.034;2023-04-26T10:13:26;99743.66;;;10.36;50.48
51715;BME280;39115;59.332;18.034;2023-04-26T10:15:47;99748.56;;;10.23;50.48
51715;BME280;39115;59.332;18.034;2023-04-26T10:18:07;99732.13;;;10.27;50.55
51715;BME280;39115;59.332;18.034;2023-04-26T10:20:27;99740.78;;;10.29;50.52
51715;BME280;39115;59.332;18.034;2023-04-26T10:22:51;99738.25;;;10.46;50.37
51715;BME280;39115;59.332;18.034;2023-04-26T10:25:13;99745.72;;;10.42;50.08
51715;BME280;39115;59.332;18.034;2023-04-26T10:32:23;99763.06;;;10.89;49.15
51715;BME280;39115;59.332;18.034;2023-04-26T10:34:43;99747.78;;;11.00;49.44
51715;BME280;39115;59.332;18.034;2023-04-26T10:37:13;99752.97;;;11.10;48.99
51715;BME280;39115;59.332;18.034;2023-04-26T10:39:34;99757.16;;;11.20;48.64
51715;BME280;39115;59.332;18.034;2023-04-26T10:42:15;99745.50;;;11.21;49.04
51715;BME280;39115;59.332;18.034;2023-04-26T10:44:41;99750.34;;;11.26;49.18
51715;BME280;39115;59.332;18.034;2023-04-26T10:47:05;99754.72;;;11.52;48.55
51715;BME280;39115;59.332;18.034;2023-04-26T10:49:26;99764.72;;;11.66;48.65
51715;BME280;39115;59.332;18.034;2023-04-26T10:54:25;99766.06;;;11.95;48.30
51715;BME280;39115;59.332;18.034;2023-04-26T10:57:03;99762.06;;;11.83;48.48
51715;BME280;39115;59.332;18.034;2023-04-26T10:59:23;99774.41;;;11.76;48.64
51715;BME280;39115;59.332;18.034;2023-04-26T11:01:44;99781.03;;;11.63;48.54
51715;BME280;39115;59.332;18.034;2023-04-26T11:04:06;99772.38;;;11.53;48.22
51715;BME280;39115;59.332;18.034;2023-04-26T11:06:45;99794.84;;;11.59;48.43
51715;BME280;39115;59.332;18.034;2023-04-26T11:09:25;99777.22;;;11.58;48.08
51715;BME280;39115;59.332;18.034;2023-04-26T11:11:50;99773.72;;;11.65;48.38
51715;BME280;39115;59.332;18.034;2023-04-26T11:14:11;99780.72;;;11.75;47.81
51715;BME280;39115;59.332;18.034;2023-04-26T11:16:33;99787.72;;;11.84;48.21
51715;BME280;39115;59.332;18.034;2023-04-26T11:18:53;99793.72;;;11.94;47.82
51715;BME280;39115;59.332;18.034;2023-04-26T11:21:14;99796.25;;;11.96;48.07
51715;BME280;39115;59.332;18.034;2023-04-26T11:23:37;99785.44;;;12.06;47.69
51715;BME280;39115;59.332;18.034;2023-04-26T11:25:58;99791.44;;;12.08;47.82
51715;BME280;39115;59.332;18.034;2023-04-26T11:28:19;99778.72;;;12.10;47.58
51715;BME280;39115;59.332;18.034;2023-04-26T11:30:41;99801.44;;;12.06;47.93
51715;BME280;39115;59.332;18.034;2023-04-26T11:33:02;99811.78;;;12.09;47.95
51715;BME280;39115;59.332;18.034;2023-04-26T11:35:26;99812.41;;;12.02;47.69
51715;BME280;39115;59.332;18.034;2023-04-26T11:37:49;99801.25;;;11.99;47.58
51715;BME280;39115;59.332;18.034;2023-04-26T11:40:10;99808.06;;;11.93;47.64
51715;BME280;39115;59.332;18.034;2023-04-26T11:42:31;99809.09;;;12.00;47.82
51715;BME280;39115;59.332;18.034;2023-04-26T11:44:51;99797.94;;;12.05;47.76
51715;BME280;39115;59.332;18.034;2023-04-26T11:47:12;99796.25;;;11.96;48.06
51715;BME280;39115;59.332;18.034;2023-04-26T11:55:16;99804.06;;;11.89;47.97
51715;BME280;39115;59.332;18.034;2023-04-26T11:57:36;99801.22;;;11.82;47.84
51715;BME280;39115;59.332;18.034;2023-04-26T12:32:34;99811.06;;;11.90;47.36
51715;BME280;39115;59.332;18.034;2023-04-26T12:34:55;99817.72;;;11.78;47.28
51715;BME280;39115;59.332;18.034;2023-04-26T12:37:15;99822.03;;;11.70;47.41
51715;BME280;39115;59.332;18.034;2023-04-26T12:39:35;99816.84;;;11.61;47.21
51715;BME280;39115;59.332;18.034;2023-04-26T12:41:55;99830.03;;;11.70;47.11
51715;BME280;39115;59.332;18.034;2023-04-26T12:44:16;99822.41;;;11.84;47.27
51715;BME280;39115;59.332;18.034;2023-04-26T12:46:36;99814.53;;;11.74;46.91
51715;BME280;39115;59.332;18.034;2023-04-26T12:48:57;99817.22;;;11.66;47.26
51715;BME280;39115;59.332;18.034;2023-04-26T12:51:17;99819.03;;;11.74;46.92
51715;BME280;39115;59.332;18.034;2023-04-26T12:53:44;99817.09;;;12.00;47.19
51715;BME280;39115;59.332;18.034;2023-04-26T12:56:05;99834.75;;;12.01;47.01
51715;BME280;39115;59.332;18.034;2023-04-26T12:58:25;99825.25;;;12.07;46.77
51715;BME280;39115;59.332;18.034;2023-04-26T13:00:47;99817.75;;;12.02;46.84
51715;BME280;39115;59.332;18.034;2023-04-26T13:03:08;99823.75;;;12.05;47.24
51715;BME280;39115;59.332;18.034;2023-04-26T13:05:30;99816.06;;;12.18;46.88
51715;BME280;39115;59.332;18.034;2023-04-26T13:07:51;99813.06;;;12.38;46.84
51715;BME280;39115;59.332;18.034;2023-04-26T13:10:11;99811.22;;;12.46;46.79
51715;BME280;39115;59.332;18.034;2023-04-26T13:12:33;99809.66;;;12.69;46.49
51715;BME280;39115;59.332;18.034;2023-04-26T13:14:53;99830.19;;;12.68;46.54
51715;BME280;39115;59.332;18.034;2023-04-26T13:17:14;99820.84;;;12.64;46.28
51715;BME280;39115;59.332;18.034;2023-04-26T13:19:34;99830.53;;;12.65;46.28